Flight Track Log - Related Links

Times and Time Zones

All times are in EST time to prevent confusion due to time zone crossing. See the UAL139 flight status page for this flight to view local times or setup timezone preferences in your user account.

Time Position Orientation Groundspeed Altitude Reporting Facility
EST Latitude Longitude Course Direction KTS MPH feet Rate Location/Type
Tue 02:40:53 PM 39.8408 -104.6984 269° West 128 147 5,400  Level FlightAware ADS-B
Tue 02:41:14 PM 39.8409 -104.7188 271° West 191 220 5,400 973 Level FlightAware ADS-B
Tue 02:41:30 PM 39.8414 -104.7400 272° West 198 228 6,000 2,211 Climbing FlightAware ADS-B
Tue 02:41:52 PM 39.8436 -104.7637 277° West 204 235 6,800 2,143 Climbing FlightAware ADS-B
Tue 02:41:58 PM 39.8460 -104.7712 293° West 206 237 7,000 2,857 Climbing FlightAware ADS-B
Tue 02:42:13 PM 39.8547 -104.7880 304° West 203 234 7,800 2,914 Climbing FlightAware ADS-B (EGNT / NCL)
Tue 02:42:33 PM 39.8641 -104.8061 304° West 193 222 8,700 2,333 Climbing FlightAware ADS-B (EGNT / NCL)
Tue 02:42:49 PM 39.8712 -104.8207 302° West 200 230 9,200 1,161 Climbing FlightAware ADS-B
Tue 02:43:04 PM 39.8788 -104.8364 302° West 221 254 9,300 632 Climbing FlightAware ADS-B
Tue 02:43:27 PM 39.8915 -104.8629 302° West 252 290 9,600 1,469 Climbing FlightAware ADS-B
Tue 02:43:53 PM 39.9067 -104.9015 297° West 270 311 10,500 1,286 Climbing FlightAware ADS-B (EGNT / NCL)
Tue 02:44:23 PM 39.9114 -104.9573 276° West 315 362 10,800 1,100 Climbing FlightAware ADS-B
Tue 02:44:53 PM 39.9159 -105.0177 276° West 339 390 11,600 2,282 Climbing FlightAware ADS-B
Tue 02:45:34 PM 39.9232 -105.0995 277° West 344 396 13,500 2,676 Climbing FlightAware ADS-B (EGNT / NCL)
Tue 02:46:07 PM 39.9284 -105.1558 277° West 351 404 14,900 2,657 Climbing FlightAware ADS-B
Tue 02:46:44 PM 39.9360 -105.2409 277° West 349 402 16,600 2,889 Climbing FlightAware ADS-B
Tue 02:47:28 PM 39.9434 -105.3212 277° West 343 395 18,800 2,659 Climbing FlightAware ADS-B
Tue 02:48:12 PM 39.9470 -105.3603 277° West 347 399 20,500 2,225 Climbing FlightAware ADS-B
Tue 02:48:57 PM 39.9572 -105.4821 276° West 356 410 22,100 2,163 Climbing FlightAware ADS-B
Tue 02:49:38 PM 39.9663 -105.5879 276° West 358 412 23,600 2,386 Climbing FlightAware ADS-B (EGNT / NCL)
Tue 02:50:20 PM 39.9721 -105.6541 276° West 342 394 25,400 1,744 Climbing FlightAware ADS-B (EGNT / NCL)
Tue 02:51:04 PM 39.9730 -105.7856 271° West 359 413 26,100 984 Climbing FlightAware ADS-B (EGNT / NCL)
Tue 02:51:21 PM 39.9722 -105.8214 268° West 370 426 26,400 677 Climbing FlightAware ADS-B
Tue 02:52:06 PM 39.9751 -105.9294 272° West 386 444 26,800 880 Climbing FlightAware ADS-B (EGNT / NCL)
Tue 02:52:36 PM 39.9784 -105.9882 274° West 392 451 27,500 1,247 Climbing FlightAware ADS-B
Tue 02:53:23 PM 39.9848 -106.1062 274° West 403 464 28,400 1,067 Climbing FlightAware ADS-B
Tue 02:54:06 PM 39.9903 -106.2070 274° West 413 475 29,100 1,047 Climbing FlightAware ADS-B
Tue 02:54:49 PM 39.9906 -106.2130 274° West 420 483 29,900 1,178 Climbing FlightAware ADS-B
Tue 02:55:53 PM 40.0215 -106.4636 279° West 422 486 31,200 1,333 Climbing FlightAware ADS-B (EGNT / NCL)
Tue 02:56:10 PM 40.0494 -106.5023 313° West 419 482 31,700 842 Climbing FlightAware ADS-B
Tue 02:56:50 PM 40.1015 -106.5695 315° West 411 473 32,000 320 Climbing FlightAware ADS-B (EGNT / NCL)
Tue 02:57:25 PM 40.1551 -106.6383 316° Northwest 414 476 32,100 636 Climbing FlightAware ADS-B
Tue 02:57:56 PM 40.1904 -106.6840 315° West 414 476 32,700 1,135 Climbing FlightAware ADS-B (EGNT / NCL)
Tue 02:58:39 PM 40.2510 -106.7621 315° West 413 475 33,500 1,116 Climbing FlightAware ADS-B (EGNT / NCL)
Tue 02:59:22 PM 40.3145 -106.8446 315° West 414 476 34,300 805 Climbing FlightAware ADS-B (EGNT / NCL)
Tue 03:00:01 PM 40.3578 -106.9007 315° West 422 486 34,600 684 Climbing FlightAware ADS-B (EGNT / NCL)
Tue 03:00:41 PM 40.4064 -106.9639 315° West 423 487 35,200 1,012 Climbing FlightAware ADS-B
Tue 03:01:24 PM 40.4832 -107.0642 315° West 421 484 36,000 640 Climbing FlightAware ADS-B (EGNT / NCL)
Tue 03:01:56 PM 40.5267 -107.1211 315° West 419 482 36,000  Level FlightAware ADS-B (EGNT / NCL)
Tue 03:02:26 PM 40.5662 -107.1729 315° West 420 483 36,000  Level FlightAware ADS-B (EGNT / NCL)
Tue 03:03:00 PM 40.6146 -107.2365 315° West 417 480 36,000  Level FlightAware ADS-B (EGNT / NCL)
Tue 03:03:46 PM 40.6764 -107.3179 315° West 415 478 36,000  Level FlightAware ADS-B
Tue 03:04:17 PM 40.7172 -107.3718 315° West 412 474 36,000  Level FlightAware ADS-B (KGUC)
Tue 03:04:52 PM 40.7620 -107.4308 315° West 410 472 36,000  Level FlightAware ADS-B
Tue 03:05:54 PM 40.8294 -107.5203 315° West 405 466 36,000  Level FlightAware ADS-B
Tue 03:06:55 PM 40.9114 -107.6294 315° West 398 458 36,000  Level FlightAware ADS-B
Tue 03:07:59 PM 40.9923 -107.7374 315° West 396 456 36,000  Level FlightAware ADS-B
Tue 03:09:03 PM 41.0907 -107.8694 315° West 393 452 36,000  Level FlightAware ADS-B
Tue 03:09:50 PM 41.1377 -107.9324 315° West 397 457 36,000  Level FlightAware ADS-B
Tue 03:15:27 PM 41.5801 -108.5345 315° West 393 452 36,000  Level FlightAware ADS-B
Tue 03:19:39 PM 41.9006 -108.9783 314° West 402 463 36,000  Level FlightAware ADS-B
Tue 03:20:52 PM 41.9946 -109.1103 314° West 399 459 36,000  Level FlightAware ADS-B
Tue 03:23:05 PM 42.1583 -109.3407 314° West 393 452 36,000  Level FlightAware ADS-B
Tue 03:23:55 PM 42.2161 -109.4261 314° West 393 452 36,000  Level Salt Lake Center
Tue 03:24:57 PM 42.2867 -109.5267 314° West 389 448 36,000  Level Salt Lake Center
Tue 03:25:58 PM 42.3692 -109.6444 313° West 388 447 36,000  Level Salt Lake Center
Tue 03:27:00 PM 42.4411 -109.7475 313° West 391 450 36,000 98 Level Salt Lake Center
Tue 03:28:01 PM 42.5239 -109.8667 313° West 391 450 36,200 390 Climbing Salt Lake Center
Tue 03:29:03 PM 42.5978 -109.9714 314° West 398 458 36,800 780 Climbing Salt Lake Center
Tue 03:30:04 PM 42.6811 -110.0939 313° West 396 456 37,800 585 Climbing Salt Lake Center
Tue 03:31:06 PM 42.7581 -110.2053 313° West 397 457 38,000 98 Climbing Salt Lake Center
Tue 03:32:07 PM 42.8294 -110.3089 313° West 393 452 38,000  Level Salt Lake Center
Tue 03:33:09 PM 42.9011 -110.4156 313° West 397 457 38,000  Level Salt Lake Center
Tue 03:34:10 PM 42.9839 -110.5369 313° West 392 451 38,000  Level Salt Lake Center
Tue 03:35:12 PM 43.0572 -110.6406 314° West 395 455 38,000  Level Salt Lake Center
Tue 03:36:14 PM 43.1392 -110.7614 313° West 388 447 38,000  Level Salt Lake Center
Tue 03:37:15 PM 43.2081 -110.8647 312° West 384 442 38,000  Level Salt Lake Center
Tue 03:38:17 PM 43.2778 -110.9681 313° West 385 443 38,000  Level Salt Lake Center
Tue 03:39:18 PM 43.3581 -111.0906 312° West 384 442 38,000  Level Salt Lake Center
Tue 03:40:20 PM 43.4264 -111.1917 313° West 378 435 38,000  Level Salt Lake Center
Tue 03:41:21 PM 43.5050 -111.3097 313° West 375 432 38,000  Level Salt Lake Center
Tue 03:42:23 PM 43.5717 -111.4119 312° West 374 430 38,000  Level Salt Lake Center
Tue 03:43:25 PM 43.6486 -111.5300 312° West 371 427 38,000  Level Salt Lake Center
Tue 03:44:26 PM 43.7156 -111.6308 313° West 370 426 38,000  Level Salt Lake Center
Tue 03:45:28 PM 43.7822 -111.7347 312° West 375 432 38,000  Level Salt Lake Center
Tue 03:46:29 PM 43.8611 -111.8550 312° West 375 432 38,000  Level Salt Lake Center
Tue 03:47:31 PM 43.9258 -111.9569 311° West 372 428 38,000  Level Salt Lake Center
Tue 03:48:32 PM 43.9922 -112.0597 312° West 373 429 38,000  Level Salt Lake Center
Tue 03:49:34 PM 44.0678 -112.1772 312° West 365 420 38,000  Level Salt Lake Center
Tue 03:50:35 PM 44.1275 -112.2881 307° West 371 427 38,000  Level Salt Lake Center
Tue 03:51:37 PM 44.1919 -112.4194 304° West 369 425 38,000  Level Salt Lake Center
Tue 03:52:38 PM 44.2486 -112.5325 305° West 372 428 38,000  Level Salt Lake Center
Tue 03:53:40 PM 44.3042 -112.6458 304° West 370 426 38,000  Level Salt Lake Center
Tue 03:54:41 PM 44.3686 -112.7794 304° West 370 426 38,000  Level Salt Lake Center
Tue 03:55:43 PM 44.4242 -112.8936 304° West 370 426 38,000  Level Salt Lake Center
Tue 03:56:44 PM 44.4883 -113.0264 304° West 368 423 38,000  Level Salt Lake Center
Tue 03:57:46 PM 44.5417 -113.1389 304° West 363 418 38,000  Level Salt Lake Center
Tue 03:58:47 PM 44.5936 -113.2450 305° West 348 400 38,000  Level Salt Lake Center
Tue 03:59:49 PM 44.6536 -113.3725 304° West 350 403 38,000  Level Salt Lake Center
Tue 04:00:51 PM 44.7067 -113.4867 303° West 361 415 38,000  Level Salt Lake Center
Tue 04:01:52 PM 44.7703 -113.6164 305° West 361 415 38,000  Level Salt Lake Center
Tue 04:02:54 PM 44.8236 -113.7267 304° West 357 411 38,000  Level Salt Lake Center
Tue 04:03:55 PM 44.8761 -113.8367 304° West 355 409 38,000  Level Salt Lake Center
Tue 04:04:57 PM 44.9386 -113.9731 303° West 356 410 38,000  Level Salt Lake Center
Tue 04:05:58 PM 44.9931 -114.0881 304° West 354 407 38,000  Level Salt Lake Center
Tue 04:06:59 PM 45.0461 -114.2033 303° West 352 405 38,000  Level Salt Lake Center
Tue 04:08:01 PM 45.1000 -114.3200 303° West 355 409 38,000  Level Salt Lake Center
Tue 04:09:02 PM 45.1547 -114.4392 303° West 361 415 38,000  Level Salt Lake Center
Tue 04:10:04 PM 45.2103 -114.5581 304° West 363 418 38,000  Level Salt Lake Center
Tue 04:11:05 PM 45.2628 -114.6744 303° West 355 409 38,000  Level Salt Lake Center
Tue 04:12:07 PM 45.3164 -114.7939 303° West 359 413 38,000  Level Salt Lake Center
Tue 04:13:08 PM 45.3822 -114.9378 303° West 363 418 38,000  Level Salt Lake Center
Tue 04:13:39 PM 45.4036 -114.9856 303° West 361 415 38,000  Level Seattle Center
Tue 04:14:40 PM 45.4583 -115.1083 302° West 366 421 38,000  Level Seattle Center
Tue 04:15:41 PM 45.5133 -115.2303 303° West 367 422 38,000  Level Seattle Center
Tue 04:16:42 PM 45.5675 -115.3536 302° West 367 422 38,000  Level Seattle Center
Tue 04:17:43 PM 45.6314 -115.4975 302° West 362 417 38,000 -50 Level Seattle Center
Tue 04:18:43 PM 45.6758 -115.5992 302° West 363 418 37,900  Descending Seattle Center
Tue 04:19:44 PM 45.7294 -115.7225 302° West 365 420 38,000  Climbing Seattle Center
Tue 04:20:45 PM 45.7836 -115.8436 303° West 364 419 37,900  Descending Seattle Center
Tue 04:21:46 PM 45.8483 -115.9917 302° West 363 418 38,000  Climbing Seattle Center
Tue 04:22:47 PM 45.9008 -116.1117 302° West 358 412 37,900  Descending Seattle Center
Tue 04:23:48 PM 45.9533 -116.2333 302° West 357 411 38,000 49 Climbing Seattle Center
Tue 04:24:49 PM 46.0053 -116.3567 301° West 360 414 38,000 -49 Level Seattle Center
Tue 04:25:50 PM 46.0575 -116.4769 302° West 357 411 37,900  Descending Seattle Center
Tue 04:26:51 PM 46.1094 -116.5997 301° West 358 412 38,000  Climbing Seattle Center
Tue 04:27:52 PM 46.1617 -116.7222 302° West 358 412 37,900 -49 Descending Seattle Center
Tue 04:28:53 PM 46.2131 -116.8461 301° West 360 414 37,900 49 Level Seattle Center
Tue 04:29:54 PM 46.2664 -116.9703 302° West 364 419 38,000  Climbing Seattle Center
Tue 04:30:55 PM 46.3181 -117.0942 301° West 360 414 37,900  Descending Seattle Center
Tue 04:31:56 PM 46.3686 -117.2156 301° West 354 407 38,000  Climbing Seattle Center
Tue 04:32:57 PM 46.4194 -117.3372 301° West 352 405 37,900  Descending Seattle Center
Tue 04:33:57 PM 46.4689 -117.4572 301° West 347 399 38,000 99 Climbing Seattle Center
Tue 04:34:58 PM 46.5203 -117.5811 301° West 356 410 38,100 197 Climbing Seattle Center
Tue 04:35:59 PM 46.5833 -117.7364 301° West 369 425 38,400 295 Climbing Seattle Center
Tue 04:37:00 PM 46.6372 -117.8686 301° West 376 433 38,700 246 Climbing Seattle Center
Tue 04:38:01 PM 46.6906 -118.0014 300° West 380 437 38,900 148 Climbing Seattle Center
Tue 04:39:02 PM 46.7439 -118.1317 301° West 375 432 39,000 16 Climbing Seattle Center
Tue 04:44:19 PM 47.0236 -118.8350 301° West 369 425 39,000  Level FlightAware ADS-B
Tue 04:45:08 PM 47.0648 -118.9400 300° West 367 422 39,000  Level FlightAware ADS-B
Tue 04:45:38 PM 47.0906 -119.0060 300° West 366 421 39,000  Level FlightAware ADS-B
Tue 04:46:10 PM 47.1171 -119.0750 299° West 365 420 39,000  Level FlightAware ADS-B
Tue 04:46:41 PM 47.1431 -119.1420 300° West 366 421 39,000  Level FlightAware ADS-B
Tue 04:47:12 PM 47.1688 -119.2080 300° West 369 425 39,000  Level FlightAware ADS-B
Tue 04:47:42 PM 47.1941 -119.2730 300° West 369 425 39,000  Level FlightAware ADS-B
Tue 04:48:03 PM 47.2126 -119.3180 301° West 367 422 39,000  Level FlightAware ADS-B
Tue 04:48:32 PM 47.2419 -119.3760 307° West 367 422 39,000  Level FlightAware ADS-B
Tue 04:49:02 PM 47.2730 -119.4360 307° West 365 420 39,000  Level FlightAware ADS-B
Tue 04:49:33 PM 47.3042 -119.4960 307° West 363 418 39,000  Level FlightAware ADS-B
Tue 04:50:04 PM 47.3359 -119.5570 307° West 365 420 39,000  Level FlightAware ADS-B
Tue 04:50:35 PM 47.3672 -119.6180 307° West 368 423 39,000  Level FlightAware ADS-B
Tue 04:51:05 PM 47.3980 -119.6780 307° West 368 423 39,000  Level FlightAware ADS-B
Tue 04:51:35 PM 47.4287 -119.7370 308° West 365 420 39,000  Level FlightAware ADS-B
Tue 04:52:05 PM 47.4594 -119.7970 307° West 362 417 39,000  Level FlightAware ADS-B
Tue 04:52:35 PM 47.4899 -119.8570 307° West 361 415 39,000  Level FlightAware ADS-B
Tue 04:53:06 PM 47.5208 -119.9170 307° West 361 415 39,000  Level FlightAware ADS-B
Tue 04:53:36 PM 47.5509 -119.9760 307° West 361 415 39,000  Level FlightAware ADS-B
Tue 04:54:06 PM 47.5812 -120.0360 307° West 363 418 39,000  Level FlightAware ADS-B
Tue 04:54:37 PM 47.6116 -120.0950 307° West 364 419 39,000  Level FlightAware ADS-B
Tue 04:55:11 PM 47.6460 -120.1630 307° West 365 420 39,000  Level FlightAware ADS-B
Tue 04:55:23 PM 47.6245 -120.1209 127° Southeast 365 420 39,000  Level FlightAware ADS-B
Tue 04:55:41 PM 47.6763 -120.2230 307° West 365 420 39,000  Level FlightAware ADS-B
Tue 04:56:11 PM 47.7068 -120.2840 307° West 364 419 39,000  Level FlightAware ADS-B
Tue 04:56:25 PM 47.7212 -120.3123 307° West 364 419 39,000  Level FlightAware ADS-B
Tue 04:56:41 PM 47.7373 -120.3440 307° West 365 420 39,000  Level FlightAware ADS-B
Tue 04:57:11 PM 47.7678 -120.4050 307° West 367 422 39,000  Level FlightAware ADS-B
Tue 04:57:25 PM 47.7813 -120.4321 307° West 367 422 39,000  Level FlightAware ADS-B
Tue 04:57:42 PM 47.7991 -120.4680 306° West 367 422 39,000  Level FlightAware ADS-B
Tue 04:58:13 PM 47.8301 -120.5290 307° West 367 422 39,000  Level FlightAware ADS-B
Tue 04:58:25 PM 47.8390 -120.5473 306° West 368 423 39,000  Level FlightAware ADS-B
Tue 04:58:43 PM 47.8607 -120.5910 307° West 370 426 39,000  Level FlightAware ADS-B
Tue 04:59:06 PM 47.8829 -120.6354 307° West 370 426 39,000  Level FlightAware ADS-B
Tue 04:59:14 PM 47.8919 -120.6530 307° West 371 427 39,000  Level FlightAware ADS-B
Tue 04:59:44 PM 47.9230 -120.7160 306° West 369 425 39,000  Level FlightAware ADS-B
Tue 04:59:46 PM 47.9220 -120.7139 126° Southeast 369 425 39,000  Level FlightAware ADS-B
Tue 05:00:15 PM 47.9537 -120.7780 306° West 370 426 39,000  Level FlightAware ADS-B
Tue 05:00:45 PM 47.9847 -120.8410 306° West 371 427 39,000  Level FlightAware ADS-B
Tue 05:01:16 PM 48.0157 -120.9040 306° West 373 429 39,000  Level FlightAware ADS-B
Tue 05:01:46 PM 48.0462 -120.9660 306° West 372 428 39,000  Level FlightAware ADS-B
Tue 05:02:00 PM 48.0601 -120.9937 307° West 372 428 39,000  Level FlightAware ADS-B
Tue 05:02:16 PM 48.0769 -121.0280 306° West 372 428 39,000  Level FlightAware ADS-B
Tue 05:02:45 PM 48.1050 -121.0855 306° West 371 427 39,000  Level FlightAware ADS-B
Tue 05:02:46 PM 48.1073 -121.0900 307° West 371 427 39,000  Level FlightAware ADS-B
Tue 05:03:16 PM 48.1380 -121.1530 306° West 371 427 39,000  Level FlightAware ADS-B
Tue 05:03:25 PM 48.1463 -121.1698 306° West 371 427 39,000  Level FlightAware ADS-B
Tue 05:03:46 PM 48.1682 -121.2150 306° West 370 426 39,000  Level FlightAware ADS-B
Tue 05:04:06 PM 48.1844 -121.2484 306° West 369 425 39,000  Level FlightAware ADS-B
Tue 05:04:17 PM 48.1993 -121.2790 306° West 369 425 39,000  Level FlightAware ADS-B
Tue 05:04:38 PM 48.2196 -121.3208 306° West 368 423 39,000  Level FlightAware ADS-B
Tue 05:04:48 PM 48.2294 -121.3410 306° West 368 423 39,000  Level FlightAware ADS-B
Tue 05:05:18 PM 48.2601 -121.4040 306° West 367 422 39,000  Level FlightAware ADS-B
Tue 05:05:26 PM 48.2668 -121.4183 305° West 368 423 39,000  Level FlightAware ADS-B
Tue 05:05:49 PM 48.2902 -121.4670 306° West 368 423 39,000  Level FlightAware ADS-B
Tue 05:06:05 PM 48.3070 -121.5013 306° West 369 425 39,000  Level FlightAware ADS-B
Tue 05:06:19 PM 48.3205 -121.5290 306° West 370 426 39,000  Level FlightAware ADS-B
Tue 05:06:46 PM 48.3409 -121.5719 306° West 371 427 39,000  Level FlightAware ADS-B
Tue 05:06:49 PM 48.3507 -121.5920 306° West 371 427 39,000  Level FlightAware ADS-B
Tue 05:07:19 PM 48.3810 -121.6550 306° West 372 428 39,000  Level FlightAware ADS-B
Tue 05:07:26 PM 48.3874 -121.6688 305° West 373 429 39,000  Level FlightAware ADS-B
Tue 05:07:50 PM 48.4116 -121.7190 306° West 374 430 39,000  Level FlightAware ADS-B
Tue 05:08:05 PM 48.4265 -121.7505 305° West 374 430 39,000  Level FlightAware ADS-B
Tue 05:08:20 PM 48.4420 -121.7830 306° West 374 430 39,000  Level FlightAware ADS-B
Tue 05:08:46 PM 48.4649 -121.8310 306° West 374 430 39,000  Level FlightAware ADS-B
Tue 05:08:50 PM 48.4721 -121.8460 306° West 374 430 39,000  Level FlightAware ADS-B
Tue 05:09:20 PM 48.5026 -121.9100 306° West 374 430 39,000  Level FlightAware ADS-B
Tue 05:09:25 PM 48.5076 -121.9210 305° West 374 430 39,000  Level FlightAware ADS-B
Tue 05:09:51 PM 48.5332 -121.9750 306° West 374 430 39,000  Level FlightAware ADS-B
Tue 05:09:56 PM 48.5415 -121.9924 306° West 373 429 39,000  Level FlightAware ADS-B (FAKM / KIM)
Tue 05:10:21 PM 48.5634 -122.0390 305° West 373 429 39,000  Level FlightAware ADS-B
Tue 05:10:29 PM 48.5680 -122.0486 306° West 373 429 39,000  Level FlightAware ADS-B
Tue 05:10:51 PM 48.5933 -122.1020 306° West 373 429 39,000  Level FlightAware ADS-B
Tue 05:11:07 PM 48.6055 -122.1282 305° West 373 429 39,000  Level FlightAware ADS-B
Tue 05:11:21 PM 48.6233 -122.1660 305° West 374 430 39,000  Level FlightAware ADS-B
Tue 05:11:46 PM 48.6447 -122.2115 305° West 375 432 39,000  Level FlightAware ADS-B
Tue 05:11:52 PM 48.6537 -122.2310 305° West 375 432 39,000  Level FlightAware ADS-B
Tue 05:12:17 PM 48.6789 -122.2844 306° West 375 432 39,000  Level FlightAware ADS-B
Tue 05:12:22 PM 48.6841 -122.2960 304° West 375 432 39,000  Level FlightAware ADS-B
Tue 05:12:52 PM 48.7145 -122.3610 305° West 376 433 39,000  Level FlightAware ADS-B
Tue 05:13:01 PM 48.7217 -122.3761 306° West 375 432 39,000  Level FlightAware ADS-B
Tue 05:13:22 PM 48.7445 -122.4250 305° West 375 432 39,000  Level FlightAware ADS-B
Tue 05:13:42 PM 48.7557 -122.4490 305° West 375 432 39,000  Level FlightAware ADS-B
Tue 05:13:53 PM 48.7749 -122.4900 305° West 376 433 39,000  Level FlightAware ADS-B
Tue 05:14:21 PM 48.8034 -122.5519 305° West 377 434 39,000  Level FlightAware ADS-B
Tue 05:14:23 PM 48.8054 -122.5560 306° West 376 433 39,000  Level FlightAware ADS-B
Tue 05:14:54 PM 48.8356 -122.6210 305° West 377 434 39,000  Level FlightAware ADS-B
Tue 05:15:01 PM 48.8418 -122.6349 304° West 380 437 39,000  Level FlightAware ADS-B
Tue 05:15:24 PM 48.8664 -122.6880 305° West 382 440 39,000  Level FlightAware ADS-B
Tue 05:15:42 PM 48.8818 -122.7214 305° West 383 441 39,000  Level FlightAware ADS-B
Tue 05:15:54 PM 48.8970 -122.7540 305° West 384 442 39,000  Level FlightAware ADS-B
Tue 05:16:13 PM 48.9156 -122.7951 305° West 385 443 39,000  Level FlightAware ADS-B
Tue 05:16:25 PM 48.9281 -122.8220 305° West 385 443 39,000  Level FlightAware ADS-B
Tue 05:16:53 PM 48.9557 -122.8824 305° West 386 444 39,000  Level FlightAware ADS-B
Tue 05:16:55 PM 48.9588 -122.8890 306° West 385 443 39,000  Level FlightAware ADS-B
Tue 05:17:37 PM 48.9982 -122.9755 305° West 387 445 39,000  Level FlightAware ADS-B
Tue 05:17:51 PM 49.0151 -123.0130 304° West 386 444 39,000  Level FlightAware ADS-B
Tue 05:18:21 PM 49.0442 -123.0764 305° West 387 445 39,000  Level FlightAware ADS-B
Tue 05:18:51 PM 49.0765 -123.1480 305° West 387 445 39,000  Level FlightAware ADS-B
Tue 05:19:01 PM 49.0864 -123.1695 305° West 386 444 39,000  Level FlightAware ADS-B
Tue 05:19:05 PM 49.0905 -123.1790 303° West 386 444 39,000  Level FlightAware ADS-B
Tue 05:19:35 PM 49.1186 -123.2490 302° West 385 443 39,000  Level FlightAware ADS-B
Tue 05:19:42 PM 49.1199 -123.2520 304° West 384 442 39,000  Level FlightAware ADS-B
Tue 05:20:06 PM 49.1468 -123.3190 302° West 384 442 39,000  Level FlightAware ADS-B
Tue 05:20:22 PM 49.1587 -123.3484 302° West 384 442 39,000  Level FlightAware ADS-B
Tue 05:20:38 PM 49.1774 -123.3940 302° West 385 443 39,000  Level FlightAware ADS-B
Tue 05:21:02 PM 49.1994 -123.4478 302° West 385 443 39,000  Level FlightAware ADS-B
Tue 05:21:33 PM 49.2277 -123.5169 302° West 385 443 39,000  Level FlightAware ADS-B
Tue 05:21:48 PM 49.2431 -123.5550 302° West 386 444 39,000  Level FlightAware ADS-B
Tue 05:22:13 PM 49.2648 -123.6150 299° West 383 441 39,000  Level FlightAware ADS-B
Tue 05:22:44 PM 49.2870 -123.6890 295° West 382 440 39,000  Level FlightAware ADS-B
Tue 05:22:57 PM 49.2966 -123.7215 294° West 383 441 39,000  Level FlightAware ADS-B
Tue 05:23:14 PM 49.3089 -123.7630 294° West 382 440 39,000  Level FlightAware ADS-B
Tue 05:23:42 PM 49.3284 -123.8287 294° West 382 440 39,000  Level FlightAware ADS-B
Tue 05:23:45 PM 49.3314 -123.8390 294° West 382 440 39,000  Level FlightAware ADS-B
Tue 05:24:15 PM 49.3534 -123.9130 295° West 383 441 39,000  Level FlightAware ADS-B
Tue 05:24:22 PM 49.3575 -123.9273 294° West 384 442 39,000  Level FlightAware ADS-B
Tue 05:25:07 PM 49.3902 -124.0387 294° West 385 443 39,000  Level FlightAware ADS-B
Tue 05:25:49 PM 49.4182 -124.1345 294° West 385 443 39,000  Level FlightAware ADS-B
Tue 05:26:29 PM 49.4507 -124.2463 294° West 384 442 39,000 -500 Level FlightAware ADS-B
Tue 05:27:13 PM 49.4824 -124.3557 294° West 381 438 38,300 -682 Descending FlightAware ADS-B
Tue 05:27:57 PM 49.5113 -124.4560 294° West 375 432 38,000 -214 Descending FlightAware ADS-B
Tue 05:28:37 PM 49.5353 -124.5398 294° West 376 433 38,000  Level FlightAware ADS-B
Tue 05:29:21 PM 49.5708 -124.6636 294° West 378 435 38,000  Level FlightAware ADS-B
Tue 05:30:04 PM 49.5935 -124.7431 294° West 378 435 38,000  Level FlightAware ADS-B
Tue 05:31:09 PM 49.6468 -124.9313 294° West 377 434 38,000  Level FlightAware ADS-B
Tue 05:33:30 PM 49.7114 -125.1620 293° West 378 435 38,000  Level FlightAware ADS-B
Tue 05:34:22 PM 49.7804 -125.4094 293° West 380 437 38,000  Level FlightAware ADS-B
Tue 05:35:19 PM 49.8000 -125.5500 293° West 380 437 38,000  Level Vancouver Center
Tue 05:36:19 PM 49.8333 -125.6833 291° West 380 437 38,000  Level Vancouver Center
Tue 05:37:19 PM 49.8833 -125.8500 295° West 380 437 38,000  Level Vancouver Center
Tue 05:38:19 PM 49.9167 -126.0000 289° West 390 449 38,000  Level Vancouver Center
Tue 05:39:19 PM 49.9667 -126.1667 295° West 390 449 38,000  Level Vancouver Center
Tue 05:40:19 PM 50.0167 -126.3167 297° West 380 437 38,000  Level Vancouver Center
Tue 05:41:19 PM 50.0500 -126.4500 291° West 380 437 38,000  Level Vancouver Center
Tue 05:42:19 PM 50.0833 -126.6333 286° West 380 437 38,000  Level Vancouver Center
Tue 05:43:19 PM 50.1333 -126.7667 300° West 390 449 38,000  Level Vancouver Center
Tue 05:44:19 PM 50.1667 -126.9333 287° West 390 449 38,000  Level Vancouver Center
Tue 05:45:19 PM 50.2167 -127.0833 298° West 390 449 38,000  Level Vancouver Center
Tue 05:46:19 PM 50.2500 -127.2500 287° West 390 449 38,000  Level Vancouver Center
Tue 05:47:19 PM 50.2833 -127.4000 289° West 390 449 38,000  Level Vancouver Center
Tue 05:48:19 PM 50.3333 -127.5333 300° West 380 437 38,000  Level Vancouver Center
Tue 05:49:19 PM 50.3833 -127.7000 295° West 390 449 38,000  Level Vancouver Center
Tue 05:50:19 PM 50.4167 -127.8667 287° West 390 449 38,000  Level Vancouver Center
Tue 05:51:19 PM 50.4500 -128.0167 289° West 410 472 38,000  Level Vancouver Center
Tue 05:52:19 PM 50.4833 -128.2167 285° West 400 460 38,000  Level Vancouver Center
Tue 05:53:19 PM 50.5167 -128.3500 292° West 400 460 38,000  Level Vancouver Center
Tue 05:54:19 PM 50.5667 -128.5333 293° West 400 460 38,000  Level Vancouver Center
Tue 05:55:19 PM 50.6000 -128.7000 288° West 400 460 38,000  Level Vancouver Center
Tue 05:56:19 PM 50.6500 -128.8500 298° West 400 460 38,000  Level Vancouver Center
Tue 05:57:19 PM 50.7000 -129.0167 295° West 410 472 38,000  Level Vancouver Center
Tue 05:58:19 PM 50.7167 -129.1833 279° West 400 460 38,000  Level Vancouver Center
Tue 05:59:19 PM 50.7667 -129.3500 295° West 410 472 38,000  Level Vancouver Center
Tue 06:00:19 PM 50.8000 -129.5167 288° West 410 472 38,000  Level Vancouver Center
Tue 06:01:19 PM 50.8500 -129.7000 293° West 410 472 38,000  Level Vancouver Center
Tue 06:02:19 PM 50.8833 -129.8667 288° West 410 472 38,000  Level Vancouver Center
Tue 06:03:19 PM 50.9167 -130.0333 288° West 420 483 38,000  Level Vancouver Center
Tue 06:04:19 PM 50.9500 -130.2167 286° West 420 483 38,000  Level Vancouver Center
Tue 06:05:19 PM 50.9833 -130.3833 288° West 420 483 38,000  Level Vancouver Center
Tue 06:06:19 PM 51.0333 -130.5667 294° West 420 483 38,000  Level Vancouver Center
Tue 06:07:19 PM 51.0667 -130.7333 288° West 420 483 38,000  Level Vancouver Center
Tue 06:08:19 PM 51.1167 -130.9000 296° West 420 483 38,000  Level Vancouver Center
Tue 06:09:19 PM 51.1500 -131.1000 285° West 420 483 38,000  Level Vancouver Center
Tue 06:10:19 PM 51.1833 -131.2667 288° West 420 483 38,000  Level Vancouver Center
Tue 06:11:19 PM 51.2333 -131.4333 296° West 410 472 38,000  Level Vancouver Center
Tue 06:12:19 PM 51.2500 -131.6000 279° West 420 483 38,000  Level Vancouver Center
Tue 06:13:19 PM 51.2833 -131.7833 286° West 430 495 38,000  Level Vancouver Center
Tue 06:14:19 PM 51.3333 -131.9833 292° West 430 495 38,000  Level Vancouver Center
Tue 06:15:19 PM 51.3667 -132.1833 285° West 440 506 38,000  Level Vancouver Center
Tue 06:16:19 PM 51.4000 -132.3500 288° West 430 495 38,000  Level Vancouver Center
Tue 06:17:19 PM 51.4333 -132.5167 288° West 440 506 38,000  Level Vancouver Center
Tue 06:18:19 PM 51.4667 -132.7167 285° West 430 495 38,000  Level Vancouver Center
Tue 06:19:19 PM 51.5167 -132.9000 294° West 430 495 38,000  Level Vancouver Center
Tue 06:20:19 PM 51.5500 -133.1000 285° West 440 506 38,000  Level Vancouver Center
Tue 06:21:19 PM 51.5833 -133.2667 288° West 430 495 38,000  Level Vancouver Center
Tue 06:22:19 PM 51.6167 -133.4667 285° West 440 506 38,000  Level Vancouver Center
Tue 06:23:19 PM 51.6500 -133.6667 285° West 440 506 38,000  Level Vancouver Center
Tue 06:24:19 PM 51.6833 -133.8667 285° West 450 518 38,000  Level Vancouver Center
Tue 06:25:19 PM 51.7167 -134.0333 288° West 450 518 38,000  Level Vancouver Center
Tue 06:26:19 PM 51.7500 -134.2333 285° West 450 518 38,000  Level Vancouver Center
Tue 06:27:19 PM 51.8000 -134.4333 292° West 450 518 38,000  Level Vancouver Center
Tue 06:28:19 PM 51.8333 -134.6333 285° West 460 529 38,000  Level Vancouver Center
Tue 06:29:19 PM 51.8667 -134.8333 285° West 460 529 38,000  Level Vancouver Center
Tue 06:30:19 PM 51.9000 -135.0333 285° West 450 518 38,000  Level Vancouver Center
Tue 06:31:19 PM 51.9333 -135.2333 285° West 440 506 38,000  Level Vancouver Center
Tue 06:32:19 PM 51.9667 -135.4000 288° West 450 518 38,000  Level Vancouver Center
Tue 06:33:17 PM 52.0167 -135.5000 292° West 460 529 38,000  Level Oakland Oceanic (ODAPS)
Tue 06:34:19 PM 52.0500 -135.8167 292° West 460 529 38,000  Level Vancouver Center
Tue 06:35:19 PM 52.0833 -135.9833 288° West 460 529 38,000  Level Vancouver Center
Tue 06:36:19 PM 52.1333 -136.1833 292° West 450 518 38,000  Level Vancouver Center
Tue 06:37:19 PM 52.1833 -136.3667 294° West 460 529 38,000  Level Vancouver Center
Tue 06:38:19 PM 52.2333 -136.5667 292° West 460 529 38,000  Level Vancouver Center
Tue 06:39:19 PM 52.2667 -136.7833 284° West 470 541 38,000  Level Vancouver Center
Tue 06:46:55 PM 52.6333 -138.2167 289° West 468 539 38,000  Level Oakland Oceanic (ODAPS)
Tue 06:55:41 PM 53.0000 -140.0000 284° West 474 545 38,000 53 Level Oakland Oceanic (ODAPS)
Tue 07:02:04 PM 53.1833 -141.3500 283° West 478 550 38,800 105 Climbing Oakland Oceanic (ODAPS)
Tue 07:14:39 PM 53.5167 -144.0667 280° West 483 556 40,000 45 Climbing Oakland Oceanic (ODAPS)
Tue 07:28:33 PM 53.8000 -147.1333 278° West 486 559 40,000  Level Oakland Oceanic (ODAPS)
Tue 07:41:12 PM 54.0000 -150.0000 256° West 497 572 40,000  Level Oakland Oceanic (ODAPS)
Tue 07:42:30 PM 53.9500 -150.2833 255° West 499 574 40,000  Level Oakland Oceanic (ODAPS)
Tue 07:56:16 PM 53.4500 -153.3500 253° West 501 577 40,000  Level Oakland Oceanic (ODAPS)
Tue 08:10:05 PM 52.8333 -156.4000 251° West 505 581 40,000  Level Oakland Oceanic (ODAPS)
Tue 08:23:57 PM 52.1500 -159.3833 249° West 507 583 40,000  Level Oakland Oceanic (ODAPS)
Tue 08:27:18 PM 52.0000 -160.0000 256° West 508 585 40,000  Level Oakland Oceanic (ODAPS)
Tue 08:40:17 PM 51.6167 -162.4000 254° West 510 587 40,000  Level Oakland Oceanic (ODAPS)
Tue 08:52:56 PM 51.0500 -165.3833 252° West 505 581 40,000  Level Oakland Oceanic (ODAPS)
Tue 09:06:10 PM 50.4167 -168.2667 250° West 502 578 40,000  Level Oakland Oceanic (ODAPS)
Tue 09:15:09 PM 49.9500 -170.2167 249° West 495 570 40,000  Level Oakland Oceanic (ODAPS)
Tue 09:19:28 PM 49.7333 -171.0833 249° West 507 583 40,000  Level Oakland Oceanic (ODAPS)
Tue 09:34:22 PM 48.9833 -173.8500 247° West 510 587 40,000  Level Oakland Oceanic (ODAPS)
Tue 09:47:13 PM 48.1833 -176.5333 244° Southwest 514 592 40,000  Level Oakland Oceanic (ODAPS)
Tue 10:01:05 PM 47.3167 -179.1167 243° Southwest 503 579 40,000  Level Oakland Oceanic (ODAPS)
Tue 10:05:59 PM 47.0000 180.0000 244° Southwest 493 567 40,000  Level Oakland Oceanic (ODAPS)
Tue 10:14:56 PM 46.4500 178.4000 243° Southwest 486 559 40,000  Level Oakland Oceanic (ODAPS)
Tue 10:28:47 PM 45.5667 175.9667 241° Southwest 490 564 40,000  Level Oakland Oceanic (ODAPS)
Tue 10:42:40 PM 44.6167 173.6333 240° Southwest 490 564 40,000  Level Oakland Oceanic (ODAPS)
Tue 10:56:31 PM 43.6667 171.4167 238° Southwest 464 534 40,000  Level Oakland Oceanic (ODAPS)
Tue 11:06:17 PM 43.0000 170.0000 245° Southwest 453 521 40,000  Level Oakland Oceanic (ODAPS)
Tue 11:10:23 PM 42.7833 169.3500 245° Southwest 455 524 40,000  Level Oakland Oceanic (ODAPS)
Tue 11:24:16 PM 42.0000 167.1500 243° Southwest 460 529 40,000  Level Oakland Oceanic (ODAPS)
Tue 11:25:00 PM 41.9659 167.0621 243° Southwest 455 524 40,000  Level FlightAware Transoceanic
Tue 11:26:00 PM 41.9098 166.9117 243° Southwest 455 524 40,000  Level FlightAware Transoceanic
Tue 11:27:00 PM 41.8535 166.7615 243° Southwest 455 524 40,000  Level FlightAware Transoceanic
Tue 11:28:00 PM 41.7970 166.6116 243° Southwest 455 524 40,000  Level FlightAware Transoceanic
Tue 11:29:00 PM 41.7403 166.4620 243° Southwest 455 524 40,000  Level FlightAware Transoceanic
Tue 11:30:00 PM 41.6569 166.2399 243° Southwest 460 529 40,000  Level FlightAware Transoceanic
Tue 11:31:00 PM 41.5990 166.0892 243° Southwest 460 529 40,000  Level FlightAware Transoceanic
Tue 11:32:00 PM 41.5410 165.9387 243° Southwest 460 529 40,000  Level FlightAware Transoceanic
Tue 11:33:00 PM 41.4827 165.7885 243° Southwest 460 529 40,000  Level FlightAware Transoceanic
Tue 11:34:00 PM 41.4243 165.6386 242° Southwest 460 529 40,000  Level FlightAware Transoceanic
Tue 11:35:00 PM 41.3656 165.4889 242° Southwest 460 529 40,000  Level FlightAware Transoceanic
Tue 11:36:00 PM 41.3067 165.3395 242° Southwest 460 529 40,000  Level FlightAware Transoceanic
Tue 11:37:00 PM 41.2477 165.1904 242° Southwest 460 529 40,000  Level FlightAware Transoceanic
Tue 11:38:00 PM 41.1885 165.0416 242° Southwest 460 529 40,000  Level FlightAware Transoceanic
Tue 11:39:00 PM 41.1290 164.8930 242° Southwest 460 529 40,000  Level FlightAware Transoceanic
Tue 11:40:00 PM 41.0694 164.7447 242° Southwest 460 529 40,000  Level FlightAware Transoceanic
Tue 11:41:00 PM 41.0096 164.5967 242° Southwest 460 529 40,000  Level FlightAware Transoceanic
Tue 11:42:00 PM 40.9496 164.4489 242° Southwest 460 529 40,000  Level FlightAware Transoceanic
Tue 11:43:00 PM 40.8894 164.3014 242° Southwest 460 529 40,000  Level FlightAware Transoceanic
Tue 11:44:00 PM 40.8291 164.1542 241° Southwest 460 529 40,000  Level FlightAware Transoceanic
Tue 11:45:00 PM 40.7685 164.0072 241° Southwest 460 529 40,000  Level FlightAware Transoceanic
Tue 11:46:00 PM 40.7078 163.8605 241° Southwest 460 529 40,000  Level FlightAware Transoceanic
Tue 11:47:00 PM 40.6468 163.7141 241° Southwest 460 529 40,000  Level FlightAware Transoceanic
Tue 11:48:00 PM 40.5857 163.5679 241° Southwest 460 529 40,000  Level FlightAware Transoceanic
Tue 11:49:00 PM 40.5244 163.4220 241° Southwest 460 529 40,000  Level FlightAware Transoceanic
Tue 11:50:00 PM 40.4629 163.2764 241° Southwest 460 529 40,000  Level FlightAware Transoceanic
Tue 11:51:00 PM 40.4013 163.1310 241° Southwest 460 529 40,000  Level FlightAware Transoceanic
Tue 11:52:00 PM 40.3394 162.9859 241° Southwest 460 529 40,000  Level FlightAware Transoceanic
Tue 11:53:00 PM 40.2774 162.8411 241° Southwest 460 529 40,000  Level FlightAware Transoceanic
Tue 11:54:00 PM 40.2152 162.6966 241° Southwest 460 529 40,000  Level FlightAware Transoceanic
Tue 11:55:00 PM 40.1528 162.5523 240° Southwest 460 529 40,000  Level FlightAware Transoceanic
Tue 11:56:00 PM 40.0902 162.4082 240° Southwest 460 529 40,000  Level FlightAware Transoceanic
Tue 11:57:00 PM 40.0275 162.2645 240° Southwest 460 529 40,000  Level FlightAware Transoceanic
Tue 11:58:00 PM 39.9646 162.1210 240° Southwest 460 529 40,000  Level FlightAware Transoceanic
Tue 11:59:00 PM 39.9015 161.9778 240° Southwest 460 529 40,000  Level FlightAware Transoceanic
Wed 12:00:00 AM 39.8382 161.8348 240° Southwest 460 529 40,000  Level FlightAware Transoceanic
Wed 12:01:00 AM 39.7748 161.6921 240° Southwest 460 529 40,000  Level FlightAware Transoceanic
Wed 12:02:00 AM 39.7112 161.5496 240° Southwest 460 529 40,000  Level FlightAware Transoceanic
Wed 12:03:00 AM 39.6474 161.4074 240° Southwest 460 529 40,000  Level FlightAware Transoceanic
Wed 12:04:00 AM 39.5834 161.2655 240° Southwest 460 529 40,000  Level FlightAware Transoceanic
Wed 12:05:00 AM 39.5192 161.1239 240° Southwest 460 529 40,000  Level FlightAware Transoceanic
Wed 12:06:00 AM 39.4549 160.9825 239° Southwest 460 529 40,000  Level FlightAware Transoceanic
Wed 12:07:00 AM 39.3904 160.8413 239° Southwest 460 529 40,000  Level FlightAware Transoceanic
Wed 12:08:00 AM 39.3258 160.7005 239° Southwest 460 529 40,000  Level FlightAware Transoceanic
Wed 12:09:00 AM 39.2610 160.5598 239° Southwest 460 529 40,000  Level FlightAware Transoceanic
Wed 12:10:00 AM 39.1960 160.4195 239° Southwest 460 529 40,000  Level FlightAware Transoceanic
Wed 12:11:00 AM 39.1308 160.2794 239° Southwest 460 529 40,000  Level FlightAware Transoceanic
Wed 12:12:00 AM 39.0655 160.1396 239° Southwest 460 529 40,000  Level FlightAware Transoceanic
Wed 12:13:00 AM 39.0000 160.0000 259° West 460 529 40,000  Level FlightAware Transoceanic
Wed 12:14:00 AM 38.9754 159.8398 259° West 460 529 40,000  Level FlightAware Transoceanic
Wed 12:15:00 AM 38.9506 159.6796 259° West 460 529 40,000  Level FlightAware Transoceanic
Wed 12:16:00 AM 38.9255 159.5196 259° West 460 529 40,000  Level FlightAware Transoceanic
Wed 12:17:00 AM 38.9003 159.3597 258° West 460 529 40,000  Level FlightAware Transoceanic
Wed 12:18:00 AM 38.8748 159.1999 258° West 460 529 40,000  Level FlightAware Transoceanic
Wed 12:19:00 AM 38.8491 159.0403 258° West 460 529 40,000  Level FlightAware Transoceanic
Wed 12:20:00 AM 38.8232 158.8807 258° West 460 529 40,000  Level FlightAware Transoceanic
Wed 12:21:00 AM 38.7971 158.7213 258° West 460 529 40,000  Level FlightAware Transoceanic
Wed 12:22:00 AM 38.7707 158.5620 258° West 460 529 40,000  Level FlightAware Transoceanic
Wed 12:23:00 AM 38.7442 158.4028 258° West 460 529 40,000  Level FlightAware Transoceanic
Wed 12:24:00 AM 38.7174 158.2437 258° West 460 529 40,000  Level FlightAware Transoceanic
Wed 12:25:00 AM 38.6904 158.0847 258° West 460 529 40,000  Level FlightAware Transoceanic
Wed 12:26:00 AM 38.6632 157.9259 258° West 460 529 40,000  Level FlightAware Transoceanic
Wed 12:27:00 AM 38.6358 157.7671 257° West 460 529 40,000  Level FlightAware Transoceanic
Wed 12:28:00 AM 38.6082 157.6085 257° West 460 529 40,000  Level FlightAware Transoceanic
Wed 12:29:00 AM 38.5803 157.4500 257° West 460 529 40,000  Level FlightAware Transoceanic
Wed 12:30:00 AM 38.5523 157.2917 257° West 460 529 40,000  Level FlightAware Transoceanic
Wed 12:31:00 AM 38.5240 157.1335 257° West 460 529 40,000  Level FlightAware Transoceanic
Wed 12:32:00 AM 38.4955 156.9754 257° West 460 529 40,000  Level FlightAware Transoceanic
Wed 12:33:00 AM 38.4668 156.8174 257° West 460 529 40,000  Level FlightAware Transoceanic
Wed 12:34:00 AM 38.4379 156.6595 257° West 460 529 40,000  Level FlightAware Transoceanic
Wed 12:35:00 AM 38.4088 156.5018 257° West 460 529 40,000  Level FlightAware Transoceanic
Wed 12:36:00 AM 38.3794 156.3442 257° West 460 529 40,000  Level FlightAware Transoceanic
Wed 12:37:00 AM 38.3499 156.1867 256° West 460 529 40,000  Level FlightAware Transoceanic
Wed 12:38:00 AM 38.3201 156.0294 256° West 460 529 40,000  Level FlightAware Transoceanic
Wed 12:39:00 AM 38.2902 155.8722 256° West 460 529 40,000  Level FlightAware Transoceanic
Wed 12:40:00 AM 38.2600 155.7151 256° West 460 529 40,000  Level FlightAware Transoceanic
Wed 12:41:00 AM 38.2296 155.5581 256° West 460 529 40,000  Level FlightAware Transoceanic
Wed 12:42:00 AM 38.1990 155.4013 256° West 460 529 40,000  Level FlightAware Transoceanic
Wed 12:43:00 AM 38.1682 155.2446 256° West 460 529 40,000  Level FlightAware Transoceanic
Wed 12:44:00 AM 38.1372 155.0881 256° West 460 529 40,000  Level FlightAware Transoceanic
Wed 12:45:00 AM 38.1060 154.9316 256° West 460 529 40,000  Level FlightAware Transoceanic
Wed 12:46:00 AM 38.0746 154.7753 256° West 460 529 40,000  Level FlightAware Transoceanic
Wed 12:47:00 AM 38.0429 154.6192 256° West 460 529 40,000  Level FlightAware Transoceanic
Wed 12:48:00 AM 38.0111 154.4632 255° West 460 529 40,000  Level FlightAware Transoceanic
Wed 12:49:00 AM 37.9791 154.3073 255° West 460 529 40,000  Level FlightAware Transoceanic
Wed 12:50:00 AM 37.9468 154.1516 255° West 460 529 40,000  Level FlightAware Transoceanic
Wed 12:51:00 AM 37.9144 153.9959 255° West 460 529 40,000  Level FlightAware Transoceanic
Wed 12:52:00 AM 37.8817 153.8405 255° West 460 529 40,000  Level FlightAware Transoceanic
Wed 12:53:00 AM 37.8489 153.6851 255° West 460 529 40,000  Level FlightAware Transoceanic
Wed 12:54:00 AM 37.8158 153.5299 255° West 460 529 40,000  Level FlightAware Transoceanic
Wed 12:55:00 AM 37.7825 153.3749 255° West 460 529 40,000  Level FlightAware Transoceanic
Wed 12:56:00 AM 37.7490 153.2200 255° West 460 529 40,000  Level FlightAware Transoceanic
Wed 12:57:00 AM 37.7154 153.0652 255° West 460 529 40,000  Level FlightAware Transoceanic
Wed 12:58:00 AM 37.6815 152.9106 254° West 460 529 40,000  Level FlightAware Transoceanic
Wed 12:59:00 AM 37.6474 152.7561 254° West 460 529 40,000  Level FlightAware Transoceanic
Wed 01:00:00 AM 37.6131 152.6017 254° West 460 529 40,000  Level FlightAware Transoceanic
Wed 01:01:00 AM 37.5787 152.4475 254° West 460 529 40,000  Level FlightAware Transoceanic
Wed 01:02:00 AM 37.5440 152.2935 254° West 460 529 40,000  Level FlightAware Transoceanic
Wed 01:03:00 AM 37.5091 152.1395 254° West 460 529 40,000  Level FlightAware Transoceanic
Wed 01:04:00 AM 37.4740 151.9857 254° West 460 529 40,000  Level FlightAware Transoceanic
Wed 01:05:00 AM 37.4387 151.8321 254° West 460 529 40,000  Level FlightAware Transoceanic
Wed 01:06:00 AM 37.4033 151.6786 254° West 460 529 40,000  Level FlightAware Transoceanic
Wed 01:07:00 AM 37.3676 151.5253 254° West 460 529 40,000  Level FlightAware Transoceanic
Wed 01:08:00 AM 37.3317 151.3721 254° West 460 529 40,000  Level FlightAware Transoceanic
Wed 01:09:00 AM 37.2956 151.2191 253° West 460 529 40,000  Level FlightAware Transoceanic
Wed 01:10:00 AM 37.2594 151.0661 253° West 460 529 40,000  Level FlightAware Transoceanic
Wed 01:11:00 AM 37.2229 150.9134 253° West 460 529 40,000  Level FlightAware Transoceanic
Wed 01:12:00 AM 37.1862 150.7608 253° West 460 529 40,000  Level FlightAware Transoceanic
Wed 01:13:00 AM 37.1494 150.6083 253° West 460 529 40,000  Level FlightAware Transoceanic
Wed 01:14:00 AM 37.1123 150.4560 253° West 460 529 40,000  Level FlightAware Transoceanic
Wed 01:15:00 AM 37.0751 150.3039 253° West 460 529 40,000  Level FlightAware Transoceanic
Wed 01:16:00 AM 37.0376 150.1519 253° West 460 529 40,000  Level FlightAware Transoceanic
Wed 01:17:00 AM 37.0014 150.0055 253° West  Level FlightAware Approximate
Wed 01:18:00 AM 36.9648 149.8592 253° West  Level FlightAware Approximate
Wed 01:19:00 AM 36.9901 149.8587 265° West  Level FlightAware Approximate
Wed 01:20:00 AM 36.9792 149.7061 265° West  Level FlightAware Approximate
Wed 01:21:00 AM 36.9681 149.5536 265° West  Level FlightAware Approximate
Wed 01:22:00 AM 36.9568 149.4011 265° West  Level FlightAware Approximate
Wed 01:23:00 AM 36.9453 149.2486 265° West  Level FlightAware Approximate
Wed 01:24:00 AM 36.9337 149.0962 265° West  Level FlightAware Approximate
Wed 01:25:00 AM 36.9218 148.9438 264° West  Level FlightAware Approximate
Wed 01:26:00 AM 36.9097 148.7914 264° West  Level FlightAware Approximate
Wed 01:27:00 AM 36.8975 148.6392 264° West  Level FlightAware Approximate
Wed 01:28:00 AM 36.8850 148.4869 264° West  Level FlightAware Approximate
Wed 01:29:00 AM 36.8562 148.3384 255° West  Level FlightAware Approximate
Wed 01:30:00 AM 36.8248 148.1906 255° West  Level FlightAware Approximate
Wed 01:31:00 AM 36.7931 148.0430 255° West  Level FlightAware Approximate
Wed 01:32:00 AM 36.7613 147.8954 255° West  Level FlightAware Approximate
Wed 01:33:00 AM 36.7293 147.7480 255° West  Level FlightAware Approximate
Wed 01:34:00 AM 36.6971 147.6007 255° West  Level FlightAware Approximate
Wed 01:35:00 AM 36.6648 147.4535 255° West  Level FlightAware Approximate
Wed 01:36:00 AM 36.6322 147.3065 255° West  Level FlightAware Approximate
Wed 01:37:00 AM 36.5995 147.1595 255° West  Level FlightAware Approximate
Wed 01:38:00 AM 36.5666 147.0128 254° West  Level FlightAware Approximate
Wed 01:39:00 AM 36.5335 146.8661 254° West  Level FlightAware Approximate
Wed 01:40:00 AM 36.5002 146.7195 254° West  Level FlightAware Approximate
Wed 01:41:00 AM 36.4668 146.5731 254° West  Level FlightAware Approximate
Wed 01:42:00 AM 36.4332 146.4268 254° West  Level FlightAware Approximate
Wed 01:43:00 AM 36.3990 146.2803 248° West  Level FlightAware Approximate
Wed 01:44:00 AM 36.3535 146.1387 248° West  Level FlightAware Approximate
Wed 01:45:00 AM 36.3078 145.9973 248° West  Level FlightAware Approximate
Wed 01:46:00 AM 36.2619 145.8561 248° West  Level FlightAware Approximate
Wed 01:47:00 AM 36.2159 145.7151 248° West  Level FlightAware Approximate
Wed 01:48:00 AM 36.1763 145.5715 253° West  Level FlightAware Approximate
Wed 01:49:00 AM 36.1434 145.4254 259° West  Level FlightAware Approximate
Wed 01:50:00 AM 36.1195 145.2766 259° West  Level FlightAware Approximate
Wed 01:51:00 AM 36.0955 145.1278 259° West  Level FlightAware Approximate
Wed 01:52:00 AM 36.0712 144.9792 259° West  Level FlightAware Approximate
Wed 01:53:00 AM 36.0467 144.8306 259° West  Level FlightAware Approximate
Wed 01:54:00 AM 36.0221 144.6821 258° West  Level FlightAware Approximate
Wed 01:55:00 AM 35.9973 144.5337 258° West  Level FlightAware Approximate
Wed 01:56:00 AM 35.9723 144.3855 258° West  Level FlightAware Approximate
Wed 01:57:00 AM 35.9472 144.2373 258° West  Level FlightAware Approximate
Wed 01:58:00 AM 35.9218 144.0892 258° West  Level FlightAware Approximate
Wed 01:59:00 AM 35.8963 143.9412 258° West  Level FlightAware Approximate
Wed 02:00:00 AM 35.8834 143.7916 270° West  Level FlightAware Approximate
Wed 02:01:00 AM 35.8848 143.6404 273° West  Level FlightAware Approximate
Wed 02:02:00 AM 35.8900 143.4892 272° West  Level FlightAware Approximate
Wed 02:03:00 AM 35.8951 143.3380 272° West  Level FlightAware Approximate
Wed 02:04:00 AM 35.8999 143.1869 272° West  Level FlightAware Approximate
Wed 02:05:00 AM 35.9001 143.0356 270° West  Level FlightAware Approximate
Wed 02:06:00 AM 35.9000 142.8843 270° West  Level FlightAware Approximate
Wed 02:07:00 AM 35.9000 142.7330 270° West  Level FlightAware Approximate
Wed 02:08:00 AM 35.9001 142.5816 270° West  Level FlightAware Approximate
Wed 02:09:00 AM 35.9000 142.4303 270° West  Level FlightAware Approximate
Wed 02:10:00 AM 35.9001 142.2790 270° West  Level FlightAware Approximate
Wed 02:11:00 AM 35.9001 142.1307 270° West  Level FlightAware Approximate
Wed 02:12:00 AM 35.9001 141.9823 270° West  Level FlightAware Approximate
Wed 02:13:00 AM 35.9001 141.8340 270° West  Level FlightAware Approximate
Wed 02:14:00 AM 35.9000 141.6856 270° West  Level FlightAware Approximate
Wed 02:15:00 AM 35.8959 141.5374 265° West  Level FlightAware Approximate
Wed 02:16:00 AM 35.8860 141.3896 265° West  Level FlightAware Approximate
Wed 02:17:00 AM 35.8657 141.2436 258° West  Level FlightAware Approximate
Wed 02:18:00 AM 35.8435 141.0979 261° West  Level FlightAware Approximate
Wed 02:19:00 AM 35.8252 140.9514 261° West  Level FlightAware Approximate
Wed 02:20:00 AM 35.8135 140.8043 262° West  Level FlightAware Approximate
Wed 02:21:00 AM 35.7957 140.6578 258° West  Level FlightAware Approximate
Wed 02:22:00 AM 35.7714 140.5119 258° West  Level FlightAware Approximate
Wed 02:23:00 AM 35.7500 140.3833 253° West  Level FlightAware Approximate
Wed 02:24:00 AM 35.7647 140.3864 253° West  Level Estimated
Wed 02:25:00 AM 35.7647 140.3864 253° West  Level Estimated
Wed 02:26:00 AM 35.7647 140.3864 253° West  Level Estimated
Wed 02:27:00 AM 35.7647 140.3864 253° West  Level Estimated
Wed 02:28:00 AM 35.7647 140.3864 253° West  Level Estimated
Wed 02:29:00 AM 35.7647 140.3864 253° West  Level Estimated
Wed 02:30:00 AM 35.7647 140.3864 253° West  Level Estimated
Wed 02:31:00 AM 35.7647 140.3864 253° West  Level Estimated
Wed 02:32:00 AM 35.7647 140.3864 253° West  Level Estimated
Wed 02:33:00 AM 35.7647 140.3864 253° West  Level Estimated
Wed 02:34:00 AM 35.7647 140.3864 253° West  Level Estimated
Wed 02:35:00 AM 35.7647 140.3864 253° West  Level Estimated
Wed 02:36:00 AM 35.7647 140.3864 253° West  Level Estimated
Wed 02:37:00 AM 35.7647 140.3864 253° West  Level Estimated
Wed 02:38:00 AM 35.7647 140.3864 253° West  Level Estimated
Wed 02:39:00 AM 35.7647 140.3864 253° West  Level Estimated

Login

Don't have an account? Register now (free) for customized features, flight alerts, and more!